Etihad Airways Virtual Airport Information Service

Karachi Jinnah International Airport

ICAO: OPKC Country: Pakistan
Latitude: 24.9065 Longitude: 67.1608
Latest Arrival : ETD221 (OMAA-OPKC) Latest Departure : ETD222 (OPKC-OMAA)


WX CaptureLIVE
Data provided by noaa.gov | Recorded at 07:13:45

METAR : OPKC 150700Z 24010KT 6000 SCT020 32/20 Q1010 NOSIG

TAF : OPKC 150330Z 1506/1612 23010G20KT 4000 HZ SCT020 BECMG 1516/1518 24010KT 4000 HZ SCT030 TEMPO 1600/1606 27010KT 4000 HZ SCT030


Runway Data for OPKC
Data provided by openaviationdata.com

Runway ID Mag Var Hdg Length Elevation Surface ILS Freq ILS Id ILS Slope

Karachi Jinnah International Airport, Pakistan
Use only for reference purposes